sensor_id;sensor_type;location;lat;lon;timestamp;pressure;altitude;pressure_sealevel;temperature;humidity
37860;BME280;23698;52.014;5.190;2022-07-29T00:01:53;101727.03;;;15.59;100.00
37860;BME280;23698;52.014;5.190;2022-07-29T00:05:00;101731.47;;;15.60;100.00
37860;BME280;23698;52.014;5.190;2022-07-29T00:08:06;101726.38;;;15.51;100.00
37860;BME280;23698;52.014;5.190;2022-07-29T00:11:15;101724.44;;;15.44;100.00
37860;BME280;23698;52.014;5.190;2022-07-29T00:14:21;101720.00;;;15.37;100.00
37860;BME280;23698;52.014;5.190;2022-07-29T00:17:26;101720.19;;;15.35;100.00
37860;BME280;23698;52.014;5.190;2022-07-29T00:20:33;101718.94;;;15.31;100.00
37860;BME280;23698;52.014;5.190;2022-07-29T00:23:39;101715.56;;;15.29;100.00
37860;BME280;23698;52.014;5.190;2022-07-29T00:26:44;101711.13;;;15.28;100.00
37860;BME280;23698;52.014;5.190;2022-07-29T00:29:50;101708.34;;;15.21;100.00
37860;BME280;23698;52.014;5.190;2022-07-29T00:32:55;101706.69;;;15.20;100.00
37860;BME280;23698;52.014;5.190;2022-07-29T00:36:02;101699.28;;;15.14;100.00
37860;BME280;23698;52.014;5.190;2022-07-29T00:39:07;101700.94;;;15.08;100.00
37860;BME280;23698;52.014;5.190;2022-07-29T00:42:12;101691.44;;;15.04;100.00
37860;BME280;23698;52.014;5.190;2022-07-29T00:45:17;101691.25;;;15.06;100.00
37860;BME280;23698;52.014;5.190;2022-07-29T00:48:24;101688.09;;;15.02;100.00
37860;BME280;23698;52.014;5.190;2022-07-29T00:51:31;101681.53;;;14.97;100.00
37860;BME280;23698;52.014;5.190;2022-07-29T00:54:38;101683.44;;;14.96;100.00
37860;BME280;23698;52.014;5.190;2022-07-29T00:57:48;101683.63;;;14.95;100.00
37860;BME280;23698;52.014;5.190;2022-07-29T01:00:54;101687.00;;;14.97;100.00
37860;BME280;23698;52.014;5.190;2022-07-29T01:04:00;101687.19;;;14.95;100.00
37860;BME280;23698;52.014;5.190;2022-07-29T01:07:07;101675.63;;;14.93;100.00
37860;BME280;23698;52.014;5.190;2022-07-29T01:10:13;101672.91;;;14.93;100.00
37860;BME280;23698;52.014;5.190;2022-07-29T01:13:20;101683.59;;;14.88;100.00
37860;BME280;23698;52.014;5.190;2022-07-29T01:16:29;101677.50;;;14.86;100.00
37860;BME280;23698;52.014;5.190;2022-07-29T01:19:47;101673.88;;;14.79;100.00
37860;BME280;23698;52.014;5.190;2022-07-29T01:23:07;101670.06;;;14.73;100.00
37860;BME280;23698;52.014;5.190;2022-07-29T01:26:27;101669.84;;;14.75;100.00
37860;BME280;23698;52.014;5.190;2022-07-29T01:29:41;101674.25;;;14.76;100.00
37860;BME280;23698;52.014;5.190;2022-07-29T01:32:53;101679.09;;;14.73;100.00
37860;BME280;23698;52.014;5.190;2022-07-29T01:36:01;101681.63;;;14.75;100.00
37860;BME280;23698;52.014;5.190;2022-07-29T01:39:14;101679.72;;;14.76;100.00
37860;BME280;23698;52.014;5.190;2022-07-29T01:42:27;101683.72;;;14.73;100.00
37860;BME280;23698;52.014;5.190;2022-07-29T01:45:38;101680.50;;;14.69;100.00
37860;BME280;23698;52.014;5.190;2022-07-29T01:48:47;101678.84;;;14.68;100.00
37860;BME280;23698;52.014;5.190;2022-07-29T01:51:57;101694.13;;;14.63;100.00
37860;BME280;23698;52.014;5.190;2022-07-29T01:55:09;101683.00;;;14.64;100.00
37860;BME280;23698;52.014;5.190;2022-07-29T01:58:17;101683.00;;;14.64;100.00
37860;BME280;23698;52.014;5.190;2022-07-29T02:01:26;101674.16;;;14.62;100.00
37860;BME280;23698;52.014;5.190;2022-07-29T02:04:33;101677.56;;;14.64;100.00
37860;BME280;23698;52.014;5.190;2022-07-29T02:07:42;101676.69;;;14.64;100.00
37860;BME280;23698;52.014;5.190;2022-07-29T02:10:48;101676.69;;;14.64;100.00
37860;BME280;23698;52.014;5.190;2022-07-29T02:13:56;101675.59;;;14.58;100.00
37860;BME280;23698;52.014;5.190;2022-07-29T02:17:04;101677.47;;;14.58;100.00
37860;BME280;23698;52.014;5.190;2022-07-29T02:20:10;101672.22;;;14.56;100.00
37860;BME280;23698;52.014;5.190;2022-07-29T02:23:21;101677.66;;;14.56;100.00
37860;BME280;23698;52.014;5.190;2022-07-29T02:26:28;101673.22;;;14.55;100.00
37860;BME280;23698;52.014;5.190;2022-07-29T02:29:34;101666.94;;;14.54;100.00
37860;BME280;23698;52.014;5.190;2022-07-29T02:32:43;101667.97;;;14.53;100.00
37860;BME280;23698;52.014;5.190;2022-07-29T02:35:50;101665.44;;;14.52;100.00
37860;BME280;23698;52.014;5.190;2022-07-29T02:38:57;101665.06;;;14.55;100.00
37860;BME280;23698;52.014;5.190;2022-07-29T02:42:08;101663.19;;;14.56;100.00
37860;BME280;23698;52.014;5.190;2022-07-29T02:45:15;101661.56;;;14.61;100.00
37860;BME280;23698;52.014;5.190;2022-07-29T02:48:27;101662.59;;;14.60;100.00
37860;BME280;23698;52.014;5.190;2022-07-29T02:51:41;101657.78;;;14.62;100.00
37860;BME280;23698;52.014;5.190;2022-07-29T02:54:52;101656.94;;;14.62;100.00
37860;BME280;23698;52.014;5.190;2022-07-29T02:58:01;101658.66;;;14.63;100.00
37860;BME280;23698;52.014;5.190;2022-07-29T03:01:11;101651.06;;;14.58;100.00
37860;BME280;23698;52.014;5.190;2022-07-29T03:04:27;101656.66;;;14.57;100.00
37860;BME280;23698;52.014;5.190;2022-07-29T03:07:34;101644.28;;;14.54;100.00
37860;BME280;23698;52.014;5.190;2022-07-29T03:10:43;101644.47;;;14.52;100.00
37860;BME280;23698;52.014;5.190;2022-07-29T03:13:49;101650.78;;;14.53;100.00
37860;BME280;23698;52.014;5.190;2022-07-29T03:16:55;101649.28;;;14.50;100.00
37860;BME280;23698;52.014;5.190;2022-07-29T03:20:03;101643.63;;;14.52;100.00
37860;BME280;23698;52.014;5.190;2022-07-29T03:23:09;101637.72;;;14.48;100.00
37860;BME280;23698;52.014;5.190;2022-07-29T03:26:15;101636.25;;;14.46;100.00
37860;BME280;23698;52.014;5.190;2022-07-29T03:29:20;101636.25;;;14.46;100.00
37860;BME280;23698;52.014;5.190;2022-07-29T03:32:27;101631.81;;;14.45;100.00
37860;BME280;23698;52.014;5.190;2022-07-29T03:35:34;101637.50;;;14.50;100.00
37860;BME280;23698;52.014;5.190;2022-07-29T03:38:42;101630.41;;;14.49;100.00
37860;BME280;23698;52.014;5.190;2022-07-29T03:41:49;101628.31;;;14.51;100.00
37860;BME280;23698;52.014;5.190;2022-07-29T03:44:57;101626.81;;;14.48;100.00
37860;BME280;23698;52.014;5.190;2022-07-29T03:48:07;101627.03;;;14.47;100.00
37860;BME280;23698;52.014;5.190;2022-07-29T03:51:14;101623.44;;;14.46;100.00
37860;BME280;23698;52.014;5.190;2022-07-29T03:54:20;101627.03;;;14.47;100.00
37860;BME280;23698;52.014;5.190;2022-07-29T03:57:27;101628.44;;;14.43;100.00
37860;BME280;23698;52.014;5.190;2022-07-29T04:00:34;101625.72;;;14.43;100.00
37860;BME280;23698;52.014;5.190;2022-07-29T04:03:40;101620.25;;;14.43;100.00
37860;BME280;23698;52.014;5.190;2022-07-29T04:06:47;101626.56;;;14.43;100.00
37860;BME280;23698;52.014;5.190;2022-07-29T04:09:52;101623.81;;;14.43;100.00
37860;BME280;23698;52.014;5.190;2022-07-29T04:12:58;101628.06;;;14.46;100.00
37860;BME280;23698;52.014;5.190;2022-07-29T04:16:04;101631.16;;;14.43;100.00
37860;BME280;23698;52.014;5.190;2022-07-29T04:19:09;101627.88;;;14.47;100.00
37860;BME280;23698;52.014;5.190;2022-07-29T04:22:16;101624.94;;;14.49;100.00
37860;BME280;23698;52.014;5.190;2022-07-29T04:25:21;101624.28;;;14.47;100.00
37860;BME280;23698;52.014;5.190;2022-07-29T04:28:27;101619.47;;;14.49;100.00
37860;BME280;23698;52.014;5.190;2022-07-29T04:31:32;101621.59;;;14.53;100.00
37860;BME280;23698;52.014;5.190;2022-07-29T04:34:38;101627.03;;;14.53;100.00
37860;BME280;23698;52.014;5.190;2022-07-29T04:37:45;101623.09;;;14.56;100.00
37860;BME280;23698;52.014;5.190;2022-07-29T04:40:50;101628.34;;;14.58;100.00
37860;BME280;23698;52.014;5.190;2022-07-29T04:43:57;101635.13;;;14.62;100.00
37860;BME280;23698;52.014;5.190;2022-07-29T04:47:07;101641.84;;;14.66;100.00
37860;BME280;23698;52.014;5.190;2022-07-29T04:50:13;101646.53;;;14.72;100.00
37860;BME280;23698;52.014;5.190;2022-07-29T04:53:19;101637.75;;;14.77;100.00
37860;BME280;23698;52.014;5.190;2022-07-29T04:56:25;101644.09;;;14.84;100.00
37860;BME280;23698;52.014;5.190;2022-07-29T04:59:30;101637.78;;;14.83;100.00
37860;BME280;23698;52.014;5.190;2022-07-29T05:02:35;101635.09;;;14.90;100.00
37860;BME280;23698;52.014;5.190;2022-07-29T05:05:41;101635.75;;;14.99;100.00
37860;BME280;23698;52.014;5.190;2022-07-29T05:08:48;101625.28;;;15.02;100.00
37860;BME280;23698;52.014;5.190;2022-07-29T05:11:53;101624.66;;;15.00;100.00
37860;BME280;23698;52.014;5.190;2022-07-29T05:14:59;101633.03;;;14.99;100.00
37860;BME280;23698;52.014;5.190;2022-07-29T05:18:05;101632.03;;;15.06;100.00
37860;BME280;23698;52.014;5.190;2022-07-29T05:21:10;101632.25;;;15.05;100.00
37860;BME280;23698;52.014;5.190;2022-07-29T05:24:17;101636.88;;;15.11;100.00
37860;BME280;23698;52.014;5.190;2022-07-29T05:27:23;101637.53;;;15.20;100.00
37860;BME280;23698;52.014;5.190;2022-07-29T05:30:28;101646.66;;;15.34;100.00
37860;BME280;23698;52.014;5.190;2022-07-29T05:33:34;101645.97;;;15.25;100.00
37860;BME280;23698;52.014;5.190;2022-07-29T05:36:40;101652.94;;;15.27;100.00
37860;BME280;23698;52.014;5.190;2022-07-29T05:39:47;101653.16;;;15.33;100.00
37860;BME280;23698;52.014;5.190;2022-07-29T05:43:00;101655.09;;;15.45;100.00
37860;BME280;23698;52.014;5.190;2022-07-29T05:46:05;101657.69;;;15.67;100.00
37860;BME280;23698;52.014;5.190;2022-07-29T05:49:10;101650.34;;;15.74;100.00
37860;BME280;23698;52.014;5.190;2022-07-29T05:52:30;101647.06;;;15.85;100.00
37860;BME280;23698;52.014;5.190;2022-07-29T05:55:37;101644.97;;;16.01;100.00
37860;BME280;23698;52.014;5.190;2022-07-29T05:58:43;101643.72;;;16.10;100.00
37860;BME280;23698;52.014;5.190;2022-07-29T06:01:48;101641.38;;;16.00;100.00
37860;BME280;23698;52.014;5.190;2022-07-29T06:04:54;101651.50;;;16.13;100.00
37860;BME280;23698;52.014;5.190;2022-07-29T06:08:00;101655.50;;;16.24;100.00
37860;BME280;23698;52.014;5.190;2022-07-29T06:11:07;101656.34;;;16.58;100.00
37860;BME280;23698;52.014;5.190;2022-07-29T06:14:12;101662.66;;;16.52;100.00
37860;BME280;23698;52.014;5.190;2022-07-29T06:17:18;101665.19;;;16.40;100.00
37860;BME280;23698;52.014;5.190;2022-07-29T06:20:23;101668.16;;;16.25;100.00
37860;BME280;23698;52.014;5.190;2022-07-29T06:23:30;101672.97;;;16.16;100.00
37860;BME280;23698;52.014;5.190;2022-07-29T06:26:37;101673.59;;;16.05;100.00
37860;BME280;23698;52.014;5.190;2022-07-29T06:29:43;101684.75;;;16.10;100.00
37860;BME280;23698;52.014;5.190;2022-07-29T06:32:50;101682.41;;;15.94;100.00
37860;BME280;23698;52.014;5.190;2022-07-29T06:35:55;101682.44;;;16.14;100.00
37860;BME280;23698;52.014;5.190;2022-07-29T06:39:00;101692.97;;;16.30;100.00
37860;BME280;23698;52.014;5.190;2022-07-29T06:42:08;101695.53;;;16.58;100.00
37860;BME280;23698;52.014;5.190;2022-07-29T06:45:14;101694.44;;;16.53;100.00
37860;BME280;23698;52.014;5.190;2022-07-29T06:48:20;101690.63;;;16.80;100.00
37860;BME280;23698;52.014;5.190;2022-07-29T06:51:24;101700.16;;;16.45;100.00
37860;BME280;23698;52.014;5.190;2022-07-29T06:54:31;101702.25;;;16.56;100.00
37860;BME280;23698;52.014;5.190;2022-07-29T06:57:37;101712.75;;;16.79;100.00
37860;BME280;23698;52.014;5.190;2022-07-29T07:00:42;101699.50;;;16.89;100.00
37860;BME280;23698;52.014;5.190;2022-07-29T07:03:48;101704.97;;;17.03;100.00
37860;BME280;23698;52.014;5.190;2022-07-29T07:06:53;101693.59;;;16.79;100.00
37860;BME280;23698;52.014;5.190;2022-07-29T07:09:59;101692.34;;;16.95;100.00
37860;BME280;23698;52.014;5.190;2022-07-29T07:13:06;101691.69;;;17.06;100.00
37860;BME280;23698;52.014;5.190;2022-07-29T07:16:12;101696.06;;;17.21;100.00
37860;BME280;23698;52.014;5.190;2022-07-29T07:19:17;101702.00;;;17.63;100.00
37860;BME280;23698;52.014;5.190;2022-07-29T07:22:23;101703.28;;;17.67;100.00
37860;BME280;23698;52.014;5.190;2022-07-29T07:25:28;101703.47;;;17.72;100.00
37860;BME280;23698;52.014;5.190;2022-07-29T07:28:35;101708.91;;;17.79;100.00
37860;BME280;23698;52.014;5.190;2022-07-29T07:31:40;101702.38;;;17.80;100.00
37860;BME280;23698;52.014;5.190;2022-07-29T07:34:46;101701.44;;;17.99;100.00
37860;BME280;23698;52.014;5.190;2022-07-29T07:37:51;101686.88;;;17.99;100.00
37860;BME280;23698;52.014;5.190;2022-07-29T07:40:56;101680.38;;;17.93;100.00
37860;BME280;23698;52.014;5.190;2022-07-29T07:44:04;101674.91;;;17.93;100.00
37860;BME280;23698;52.014;5.190;2022-07-29T07:47:10;101668.47;;;18.06;100.00
37860;BME280;23698;52.014;5.190;2022-07-29T07:50:15;101678.41;;;18.57;100.00
37860;BME280;23698;52.014;5.190;2022-07-29T07:53:22;101689.13;;;18.91;100.00
37860;BME280;23698;52.014;5.190;2022-07-29T07:56:28;101691.81;;;19.16;100.00
37860;BME280;23698;52.014;5.190;2022-07-29T07:59:39;101682.75;;;19.15;100.00
37860;BME280;23698;52.014;5.190;2022-07-29T08:02:45;101681.06;;;19.33;100.00
37860;BME280;23698;52.014;5.190;2022-07-29T08:05:50;101687.31;;;19.40;100.00
37860;BME280;23698;52.014;5.190;2022-07-29T08:08:56;101681.13;;;19.26;100.00
37860;BME280;23698;52.014;5.190;2022-07-29T08:12:20;101683.66;;;19.28;100.00
37860;BME280;23698;52.014;5.190;2022-07-29T08:15:27;101687.75;;;19.18;100.00
37860;BME280;23698;52.014;5.190;2022-07-29T08:18:32;101686.06;;;19.36;100.00
37860;BME280;23698;52.014;5.190;2022-07-29T08:21:38;101683.97;;;19.38;100.00
37860;BME280;23698;52.014;5.190;2022-07-29T08:24:43;101684.72;;;19.94;100.00
37860;BME280;23698;52.014;5.190;2022-07-29T08:27:50;101688.47;;;20.77;100.00
37860;BME280;23698;52.014;5.190;2022-07-29T08:30:57;101675.69;;;21.35;100.00
37860;BME280;23698;52.014;5.190;2022-07-29T08:34:02;101688.28;;;21.43;100.00
37860;BME280;23698;52.014;5.190;2022-07-29T08:37:07;101690.69;;;21.27;100.00
37860;BME280;23698;52.014;5.190;2022-07-29T08:40:12;101685.63;;;21.60;100.00
37860;BME280;23698;52.014;5.190;2022-07-29T08:43:19;101697.63;;;21.82;100.00
37860;BME280;23698;52.014;5.190;2022-07-29T08:46:26;101692.59;;;21.50;100.00
37860;BME280;23698;52.014;5.190;2022-07-29T08:49:33;101684.53;;;21.90;100.00
37860;BME280;23698;52.014;5.190;2022-07-29T08:52:40;101690.25;;;22.17;100.00
37860;BME280;23698;52.014;5.190;2022-07-29T08:55:47;101688.53;;;22.28;100.00
37860;BME280;23698;52.014;5.190;2022-07-29T08:58:53;101685.59;;;22.85;100.00
37860;BME280;23698;52.014;5.190;2022-07-29T09:02:02;101681.91;;;22.79;100.00
37860;BME280;23698;52.014;5.190;2022-07-29T09:05:12;101686.63;;;23.01;100.00
37860;BME280;23698;52.014;5.190;2022-07-29T09:08:18;101681.25;;;22.55;100.00
37860;BME280;23698;52.014;5.190;2022-07-29T09:11:24;101679.16;;;22.79;100.00
37860;BME280;23698;52.014;5.190;2022-07-29T09:14:29;101679.31;;;22.90;100.00
37860;BME280;23698;52.014;5.190;2022-07-29T09:17:45;101669.06;;;22.90;100.00
37860;BME280;23698;52.014;5.190;2022-07-29T09:20:52;101672.72;;;23.13;100.00
37860;BME280;23698;52.014;5.190;2022-07-29T09:24:14;101667.88;;;23.03;100.00
37860;BME280;23698;52.014;5.190;2022-07-29T09:27:21;101667.78;;;23.15;100.00
37860;BME280;23698;52.014;5.190;2022-07-29T09:30:30;101672.16;;;23.11;100.00
37860;BME280;23698;52.014;5.190;2022-07-29T09:33:36;101672.34;;;23.48;100.00
37860;BME280;23698;52.014;5.190;2022-07-29T09:36:45;101674.28;;;23.26;100.00
37860;BME280;23698;52.014;5.190;2022-07-29T09:39:51;101673.31;;;23.37;100.00
37860;BME280;23698;52.014;5.190;2022-07-29T09:42:56;101676.47;;;23.68;100.00
37860;BME280;23698;52.014;5.190;2022-07-29T09:46:09;101675.66;;;23.72;100.00
37860;BME280;23698;52.014;5.190;2022-07-29T09:49:17;101681.94;;;23.63;100.00
37860;BME280;23698;52.014;5.190;2022-07-29T09:52:22;101680.94;;;23.74;100.00
37860;BME280;23698;52.014;5.190;2022-07-29T09:55:28;101671.09;;;24.10;100.00
37860;BME280;23698;52.014;5.190;2022-07-29T09:58:33;101674.22;;;24.19;100.00
37860;BME280;23698;52.014;5.190;2022-07-29T10:01:38;101679.25;;;24.22;100.00
37860;BME280;23698;52.014;5.190;2022-07-29T10:04:45;101671.16;;;24.85;100.00
37860;BME280;23698;52.014;5.190;2022-07-29T10:07:51;101668.41;;;24.91;100.00
37860;BME280;23698;52.014;5.190;2022-07-29T10:11:09;101664.91;;;25.11;100.00
37860;BME280;23698;52.014;5.190;2022-07-29T10:14:15;101665.38;;;25.50;100.00
37860;BME280;23698;52.014;5.190;2022-07-29T10:17:20;101661.19;;;25.42;100.00
37860;BME280;23698;52.014;5.190;2022-07-29T10:20:28;101669.63;;;25.10;100.00
37860;BME280;23698;52.014;5.190;2022-07-29T10:23:34;101670.75;;;25.19;100.00
37860;BME280;23698;52.014;5.190;2022-07-29T10:26:50;101663.22;;;25.04;100.00
37860;BME280;23698;52.014;5.190;2022-07-29T10:29:55;101663.25;;;25.93;100.00
37860;BME280;23698;52.014;5.190;2022-07-29T10:33:10;101662.28;;;25.36;100.00
37860;BME280;23698;52.014;5.190;2022-07-29T10:36:31;101662.69;;;25.13;100.00
37860;BME280;23698;52.014;5.190;2022-07-29T10:39:46;101665.44;;;25.02;100.00
37860;BME280;23698;52.014;5.190;2022-07-29T10:43:06;101661.59;;;25.14;100.00
37860;BME280;23698;52.014;5.190;2022-07-29T10:46:16;101651.97;;;25.32;100.00
37860;BME280;23698;52.014;5.190;2022-07-29T10:49:24;101656.91;;;26.34;100.00
37860;BME280;23698;52.014;5.190;2022-07-29T10:52:53;101661.59;;;26.59;100.00
37860;BME280;23698;52.014;5.190;2022-07-29T10:56:00;101660.38;;;27.17;100.00
37860;BME280;23698;52.014;5.190;2022-07-29T10:59:25;101656.59;;;27.57;100.00
37860;BME280;23698;52.014;5.190;2022-07-29T11:02:43;101660.81;;;26.69;100.00
37860;BME280;23698;52.014;5.190;2022-07-29T11:05:54;101655.75;;;27.57;100.00
37860;BME280;23698;52.014;5.190;2022-07-29T11:09:17;101652.56;;;27.24;100.00
37860;BME280;23698;52.014;5.190;2022-07-29T11:12:47;101649.28;;;27.06;100.00
37860;BME280;23698;52.014;5.190;2022-07-29T11:15:54;101644.06;;;26.89;100.00
37860;BME280;23698;52.014;5.190;2022-07-29T11:19:21;101640.78;;;26.56;100.00
37860;BME280;23698;52.014;5.190;2022-07-29T11:22:34;101643.81;;;26.60;100.00
37860;BME280;23698;52.014;5.190;2022-07-29T11:26:14;101649.38;;;26.55;100.00
37860;BME280;23698;52.014;5.190;2022-07-29T11:29:48;101638.84;;;26.67;100.00
37860;BME280;23698;52.014;5.190;2022-07-29T11:32:54;101643.28;;;26.27;100.00
37860;BME280;23698;52.014;5.190;2022-07-29T11:36:10;101641.63;;;26.26;100.00
37860;BME280;23698;52.014;5.190;2022-07-29T11:39:27;101638.28;;;26.40;100.00
37860;BME280;23698;52.014;5.190;2022-07-29T11:42:43;101641.88;;;26.71;100.00
37860;BME280;23698;52.014;5.190;2022-07-29T11:45:49;101642.69;;;26.77;100.00
37860;BME280;23698;52.014;5.190;2022-07-29T11:48:55;101644.66;;;26.66;100.00
37860;BME280;23698;52.014;5.190;2022-07-29T11:52:01;101636.22;;;27.07;100.00
37860;BME280;23698;52.014;5.190;2022-07-29T11:55:09;101642.44;;;26.47;100.00
37860;BME280;23698;52.014;5.190;2022-07-29T11:58:21;101648.81;;;26.79;100.00
37860;BME280;23698;52.014;5.190;2022-07-29T12:01:29;101652.44;;;26.74;100.00
37860;BME280;23698;52.014;5.190;2022-07-29T12:04:48;101642.38;;;26.99;100.00
37860;BME280;23698;52.014;5.190;2022-07-29T12:07:54;101643.81;;;26.60;100.00
37860;BME280;23698;52.014;5.190;2022-07-29T12:11:00;101653.19;;;27.05;100.00
37860;BME280;23698;52.014;5.190;2022-07-29T12:14:07;101647.44;;;26.71;100.00
37860;BME280;23698;52.014;5.190;2022-07-29T12:17:25;101655.44;;;27.03;100.00
37860;BME280;23698;52.014;5.190;2022-07-29T12:20:33;101663.47;;;27.05;100.00
37860;BME280;23698;52.014;5.190;2022-07-29T12:23:52;101645.69;;;27.61;100.00
37860;BME280;23698;52.014;5.190;2022-07-29T12:26:59;101656.31;;;27.59;100.00
37860;BME280;23698;52.014;5.190;2022-07-29T12:30:09;101652.22;;;27.46;100.00
37860;BME280;23698;52.014;5.190;2022-07-29T12:33:22;101651.16;;;27.26;100.00
37860;BME280;23698;52.014;5.190;2022-07-29T12:36:27;101653.47;;;27.09;100.00
37860;BME280;23698;52.014;5.190;2022-07-29T12:39:33;101646.25;;;26.92;100.00
37860;BME280;23698;52.014;5.190;2022-07-29T12:42:39;101639.28;;;27.65;100.00
37860;BME280;23698;52.014;5.190;2022-07-29T12:45:47;101640.75;;;27.53;100.00
37860;BME280;23698;52.014;5.190;2022-07-29T12:48:54;101640.66;;;27.73;100.00
37860;BME280;23698;52.014;5.190;2022-07-29T12:52:00;101639.44;;;27.35;100.00
37860;BME280;23698;52.014;5.190;2022-07-29T12:55:42;101643.00;;;27.50;100.00
37860;BME280;23698;52.014;5.190;2022-07-29T12:58:47;101637.13;;;26.82;100.00
37860;BME280;23698;52.014;5.190;2022-07-29T13:01:55;101638.25;;;27.51;100.00
37860;BME280;23698;52.014;5.190;2022-07-29T13:05:05;101634.44;;;27.42;100.00
37860;BME280;23698;52.014;5.190;2022-07-29T13:08:13;101637.78;;;27.34;100.00
37860;BME280;23698;52.014;5.190;2022-07-29T13:11:29;101630.25;;;27.39;94.77
37860;BME280;23698;52.014;5.190;2022-07-29T13:14:38;101630.22;;;27.44;97.08
37860;BME280;23698;52.014;5.190;2022-07-29T13:17:45;101637.25;;;28.21;94.44
37860;BME280;23698;52.014;5.190;2022-07-29T13:20:51;101632.75;;;29.08;88.12
37860;BME280;23698;52.014;5.190;2022-07-29T13:23:56;101633.03;;;28.53;84.68
37860;BME280;23698;52.014;5.190;2022-07-29T13:27:01;101645.91;;;27.20;90.77
37860;BME280;23698;52.014;5.190;2022-07-29T13:30:09;101644.13;;;27.49;92.79
37860;BME280;23698;52.014;5.190;2022-07-29T13:33:16;101639.59;;;26.88;96.12
37860;BME280;23698;52.014;5.190;2022-07-29T13:36:22;101641.53;;;27.63;95.14
37860;BME280;23698;52.014;5.190;2022-07-29T13:39:27;101633.75;;;28.34;96.17
37860;BME280;23698;52.014;5.190;2022-07-29T13:42:32;101632.47;;;28.56;89.87
37860;BME280;23698;52.014;5.190;2022-07-29T13:45:37;101641.13;;;28.84;85.30
37860;BME280;23698;52.014;5.190;2022-07-29T13:48:47;101639.47;;;27.79;85.19
37860;BME280;23698;52.014;5.190;2022-07-29T13:51:53;101637.97;;;27.97;85.78
37860;BME280;23698;52.014;5.190;2022-07-29T13:54:59;101642.47;;;27.88;86.66
37860;BME280;23698;52.014;5.190;2022-07-29T13:58:04;101628.97;;;28.11;83.73
37860;BME280;23698;52.014;5.190;2022-07-29T14:01:10;101632.09;;;27.99;82.25
37860;BME280;23698;52.014;5.190;2022-07-29T14:04:16;101628.56;;;28.81;79.64
37860;BME280;23698;52.014;5.190;2022-07-29T14:07:23;101626.66;;;29.00;82.95
37860;BME280;23698;52.014;5.190;2022-07-29T14:10:29;101627.59;;;29.39;84.24
37860;BME280;23698;52.014;5.190;2022-07-29T14:13:34;101629.75;;;29.23;82.68
37860;BME280;23698;52.014;5.190;2022-07-29T14:16:39;101627.22;;;29.46;77.67
37860;BME280;23698;52.014;5.190;2022-07-29T14:19:53;101635.91;;;30.01;75.91
37860;BME280;23698;52.014;5.190;2022-07-29T14:23:01;101628.84;;;29.90;77.26
37860;BME280;23698;52.014;5.190;2022-07-29T14:26:08;101628.22;;;29.93;71.82
37860;BME280;23698;52.014;5.190;2022-07-29T14:29:24;101635.97;;;30.15;68.50
37860;BME280;23698;52.014;5.190;2022-07-29T14:32:41;101632.53;;;29.85;68.40
37860;BME280;23698;52.014;5.190;2022-07-29T14:35:47;101626.88;;;30.42;69.21
37860;BME280;23698;52.014;5.190;2022-07-29T14:38:52;101630.38;;;30.48;66.30
37860;BME280;23698;52.014;5.190;2022-07-29T14:41:58;101628.69;;;29.81;62.63
37860;BME280;23698;52.014;5.190;2022-07-29T14:45:06;101634.34;;;30.61;62.88
37860;BME280;23698;52.014;5.190;2022-07-29T14:48:14;101637.47;;;30.87;64.33
37860;BME280;23698;52.014;5.190;2022-07-29T14:51:20;101631.34;;;31.27;63.71
37860;BME280;23698;52.014;5.190;2022-07-29T14:54:26;101637.19;;;31.16;60.58
37860;BME280;23698;52.014;5.190;2022-07-29T14:57:31;101641.66;;;31.03;63.92
37860;BME280;23698;52.014;5.190;2022-07-29T15:00:36;101633.88;;;31.14;63.32
37860;BME280;23698;52.014;5.190;2022-07-29T15:03:41;101636.81;;;31.46;61.58
37860;BME280;23698;52.014;5.190;2022-07-29T15:06:48;101635.13;;;30.47;60.86
37860;BME280;23698;52.014;5.190;2022-07-29T15:09:53;101640.50;;;31.04;58.82
37860;BME280;23698;52.014;5.190;2022-07-29T15:13:03;101636.84;;;30.76;61.72
37860;BME280;23698;52.014;5.190;2022-07-29T15:16:08;101641.31;;;30.77;58.01
37860;BME280;23698;52.014;5.190;2022-07-29T15:19:13;101628.88;;;31.75;54.43
37860;BME280;23698;52.014;5.190;2022-07-29T15:22:20;101637.97;;;31.31;51.82
37860;BME280;23698;52.014;5.190;2022-07-29T15:25:25;101636.28;;;31.43;50.19
37860;BME280;23698;52.014;5.190;2022-07-29T15:28:31;101640.06;;;31.39;50.28
37860;BME280;23698;52.014;5.190;2022-07-29T15:31:36;101641.59;;;31.31;47.29
37860;BME280;23698;52.014;5.190;2022-07-29T15:34:42;101633.88;;;31.65;46.36
37860;BME280;23698;52.014;5.190;2022-07-29T15:37:48;101639.81;;;31.63;47.10
37860;BME280;23698;52.014;5.190;2022-07-29T15:40:54;101637.34;;;31.84;47.08
37860;BME280;23698;52.014;5.190;2022-07-29T15:43:59;101631.56;;;32.03;48.48
37860;BME280;23698;52.014;5.190;2022-07-29T15:47:04;101639.72;;;32.13;49.74
37860;BME280;23698;52.014;5.190;2022-07-29T15:50:10;101625.13;;;32.88;49.32
37860;BME280;23698;52.014;5.190;2022-07-29T15:53:20;101632.66;;;32.70;52.08
37860;BME280;23698;52.014;5.190;2022-07-29T15:56:25;101630.78;;;32.34;48.96
37860;BME280;23698;52.014;5.190;2022-07-29T15:59:31;101629.66;;;31.90;52.06
37860;BME280;23698;52.014;5.190;2022-07-29T16:02:36;101626.59;;;32.77;47.82
37860;BME280;23698;52.014;5.190;2022-07-29T16:05:41;101623.25;;;32.74;50.54
37860;BME280;23698;52.014;5.190;2022-07-29T16:08:47;101624.91;;;32.44;49.93
37860;BME280;23698;52.014;5.190;2022-07-29T16:11:52;101626.19;;;30.12;58.67
37860;BME280;23698;52.014;5.190;2022-07-29T16:14:58;101619.72;;;31.47;56.15